sensor_id;sensor_type;location;lat;lon;timestamp;P1;durP1;ratioP1;P2;durP2;ratioP2
82242;SDS011;71844;51.528;4.442;2024-03-06T00:02:07;7.65;;;4.03;;
82242;SDS011;71844;51.528;4.442;2024-03-06T00:04:35;8.68;;;4.55;;
82242;SDS011;71844;51.528;4.442;2024-03-06T00:07:02;7.88;;;4.45;;
82242;SDS011;71844;51.528;4.442;2024-03-06T00:09:31;7.13;;;3.92;;
82242;SDS011;71844;51.528;4.442;2024-03-06T00:11:58;8.35;;;3.90;;
82242;SDS011;71844;51.528;4.442;2024-03-06T00:14:26;7.90;;;4.10;;
82242;SDS011;71844;51.528;4.442;2024-03-06T00:16:53;7.55;;;4.35;;
82242;SDS011;71844;51.528;4.442;2024-03-06T00:19:22;7.68;;;4.07;;
82242;SDS011;71844;51.528;4.442;2024-03-06T00:21:49;9.57;;;4.55;;
82242;SDS011;71844;51.528;4.442;2024-03-06T00:24:16;7.85;;;4.07;;
82242;SDS011;71844;51.528;4.442;2024-03-06T00:26:46;8.77;;;4.13;;
82242;SDS011;71844;51.528;4.442;2024-03-06T00:29:13;7.47;;;3.90;;
82242;SDS011;71844;51.528;4.442;2024-03-06T00:31:43;7.47;;;4.70;;
82242;SDS011;71844;51.528;4.442;2024-03-06T00:34:11;7.25;;;3.63;;
82242;SDS011;71844;51.528;4.442;2024-03-06T00:36:40;7.03;;;3.92;;
82242;SDS011;71844;51.528;4.442;2024-03-06T00:39:07;6.10;;;3.28;;
82242;SDS011;71844;51.528;4.442;2024-03-06T00:41:34;8.18;;;4.22;;
82242;SDS011;71844;51.528;4.442;2024-03-06T00:44:02;8.45;;;4.10;;
82242;SDS011;71844;51.528;4.442;2024-03-06T00:46:29;8.63;;;4.38;;
82242;SDS011;71844;51.528;4.442;2024-03-06T00:48:56;8.43;;;4.00;;
82242;SDS011;71844;51.528;4.442;2024-03-06T00:51:23;8.65;;;4.75;;
82242;SDS011;71844;51.528;4.442;2024-03-06T00:54:06;8.57;;;4.53;;
82242;SDS011;71844;51.528;4.442;2024-03-06T00:56:39;8.27;;;4.15;;
82242;SDS011;71844;51.528;4.442;2024-03-06T00:59:06;7.35;;;3.67;;
82242;SDS011;71844;51.528;4.442;2024-03-06T01:01:33;8.07;;;4.38;;
82242;SDS011;71844;51.528;4.442;2024-03-06T01:04:00;7.10;;;3.70;;
82242;SDS011;71844;51.528;4.442;2024-03-06T01:06:27;12.18;;;4.68;;
82242;SDS011;71844;51.528;4.442;2024-03-06T01:08:55;6.95;;;4.18;;
82242;SDS011;71844;51.528;4.442;2024-03-06T01:11:23;8.88;;;4.15;;
82242;SDS011;71844;51.528;4.442;2024-03-06T01:13:50;9.20;;;4.50;;
82242;SDS011;71844;51.528;4.442;2024-03-06T01:16:17;9.98;;;5.32;;
82242;SDS011;71844;51.528;4.442;2024-03-06T01:18:44;8.55;;;4.38;;
82242;SDS011;71844;51.528;4.442;2024-03-06T01:21:11;10.25;;;5.25;;
82242;SDS011;71844;51.528;4.442;2024-03-06T01:23:38;8.45;;;4.45;;
82242;SDS011;71844;51.528;4.442;2024-03-06T01:26:05;9.35;;;5.00;;
82242;SDS011;71844;51.528;4.442;2024-03-06T01:28:32;9.50;;;5.18;;
82242;SDS011;71844;51.528;4.442;2024-03-06T01:30:59;8.82;;;4.78;;
82242;SDS011;71844;51.528;4.442;2024-03-06T01:33:26;8.77;;;4.78;;
82242;SDS011;71844;51.528;4.442;2024-03-06T01:35:53;10.32;;;5.32;;
82242;SDS011;71844;51.528;4.442;2024-03-06T01:38:20;9.43;;;6.28;;
82242;SDS011;71844;51.528;4.442;2024-03-06T01:40:47;10.65;;;5.25;;
82242;SDS011;71844;51.528;4.442;2024-03-06T01:43:21;8.68;;;4.95;;
82242;SDS011;71844;51.528;4.442;2024-03-06T01:45:49;10.05;;;5.38;;
82242;SDS011;71844;51.528;4.442;2024-03-06T01:48:16;10.43;;;4.53;;
82242;SDS011;71844;51.528;4.442;2024-03-06T01:50:46;9.70;;;4.93;;
82242;SDS011;71844;51.528;4.442;2024-03-06T01:53:13;8.00;;;4.50;;
82242;SDS011;71844;51.528;4.442;2024-03-06T01:55:42;8.77;;;5.05;;
82242;SDS011;71844;51.528;4.442;2024-03-06T01:58:09;9.82;;;5.60;;
82242;SDS011;71844;51.528;4.442;2024-03-06T02:03:02;9.13;;;4.75;;
82242;SDS011;71844;51.528;4.442;2024-03-06T02:05:29;10.63;;;5.47;;
82242;SDS011;71844;51.528;4.442;2024-03-06T02:07:57;10.05;;;5.47;;
82242;SDS011;71844;51.528;4.442;2024-03-06T02:10:26;9.38;;;5.47;;
82242;SDS011;71844;51.528;4.442;2024-03-06T02:12:54;11.50;;;5.80;;
82242;SDS011;71844;51.528;4.442;2024-03-06T02:15:21;9.13;;;5.07;;
82242;SDS011;71844;51.528;4.442;2024-03-06T02:17:48;10.02;;;5.63;;
82242;SDS011;71844;51.528;4.442;2024-03-06T02:20:21;9.82;;;5.43;;
82242;SDS011;71844;51.528;4.442;2024-03-06T02:22:51;9.80;;;4.70;;
82242;SDS011;71844;51.528;4.442;2024-03-06T02:25:18;8.05;;;4.78;;
82242;SDS011;71844;51.528;4.442;2024-03-06T02:27:46;10.45;;;5.35;;
82242;SDS011;71844;51.528;4.442;2024-03-06T02:30:14;9.10;;;4.93;;
82242;SDS011;71844;51.528;4.442;2024-03-06T02:32:45;7.60;;;4.57;;
82242;SDS011;71844;51.528;4.442;2024-03-06T02:35:12;7.82;;;4.82;;
82242;SDS011;71844;51.528;4.442;2024-03-06T02:37:43;9.25;;;4.68;;
82242;SDS011;71844;51.528;4.442;2024-03-06T02:40:11;7.43;;;4.57;;
82242;SDS011;71844;51.528;4.442;2024-03-06T02:42:38;9.85;;;4.95;;
82242;SDS011;71844;51.528;4.442;2024-03-06T02:45:08;9.50;;;5.28;;
82242;SDS011;71844;51.528;4.442;2024-03-06T02:47:35;7.85;;;4.60;;
82242;SDS011;71844;51.528;4.442;2024-03-06T02:50:02;10.15;;;5.65;;
82242;SDS011;71844;51.528;4.442;2024-03-06T02:52:29;9.90;;;4.97;;
82242;SDS011;71844;51.528;4.442;2024-03-06T02:54:56;9.35;;;5.40;;
82242;SDS011;71844;51.528;4.442;2024-03-06T02:57:26;8.45;;;4.53;;
82242;SDS011;71844;51.528;4.442;2024-03-06T02:59:57;7.30;;;4.28;;
82242;SDS011;71844;51.528;4.442;2024-03-06T03:02:24;8.23;;;5.47;;
82242;SDS011;71844;51.528;4.442;2024-03-06T03:04:51;10.70;;;5.65;;
82242;SDS011;71844;51.528;4.442;2024-03-06T03:07:19;9.32;;;5.30;;
82242;SDS011;71844;51.528;4.442;2024-03-06T03:09:46;9.32;;;5.30;;
82242;SDS011;71844;51.528;4.442;2024-03-06T03:12:13;8.50;;;4.95;;
82242;SDS011;71844;51.528;4.442;2024-03-06T03:14:40;11.68;;;6.75;;
82242;SDS011;71844;51.528;4.442;2024-03-06T03:17:07;8.68;;;5.93;;
82242;SDS011;71844;51.528;4.442;2024-03-06T03:19:35;10.27;;;4.75;;
82242;SDS011;71844;51.528;4.442;2024-03-06T03:22:03;9.70;;;5.00;;
82242;SDS011;71844;51.528;4.442;2024-03-06T03:24:30;10.73;;;5.43;;
82242;SDS011;71844;51.528;4.442;2024-03-06T03:26:57;9.60;;;5.65;;
82242;SDS011;71844;51.528;4.442;2024-03-06T03:29:24;9.50;;;5.10;;
82242;SDS011;71844;51.528;4.442;2024-03-06T03:31:51;9.25;;;4.97;;
82242;SDS011;71844;51.528;4.442;2024-03-06T03:34:18;9.27;;;4.75;;
82242;SDS011;71844;51.528;4.442;2024-03-06T03:36:46;10.25;;;5.28;;
82242;SDS011;71844;51.528;4.442;2024-03-06T03:39:14;9.63;;;5.32;;
82242;SDS011;71844;51.528;4.442;2024-03-06T03:41:47;9.63;;;5.07;;
82242;SDS011;71844;51.528;4.442;2024-03-06T03:44:15;10.23;;;5.28;;
82242;SDS011;71844;51.528;4.442;2024-03-06T03:46:43;8.60;;;4.68;;
82242;SDS011;71844;51.528;4.442;2024-03-06T03:49:10;9.73;;;5.68;;
82242;SDS011;71844;51.528;4.442;2024-03-06T03:51:37;9.45;;;5.25;;
82242;SDS011;71844;51.528;4.442;2024-03-06T03:54:05;9.32;;;5.38;;
82242;SDS011;71844;51.528;4.442;2024-03-06T03:56:32;9.93;;;5.32;;
82242;SDS011;71844;51.528;4.442;2024-03-06T03:58:59;9.98;;;5.15;;
82242;SDS011;71844;51.528;4.442;2024-03-06T04:01:27;9.07;;;5.45;;
82242;SDS011;71844;51.528;4.442;2024-03-06T04:03:54;11.63;;;5.80;;
82242;SDS011;71844;51.528;4.442;2024-03-06T04:06:21;10.73;;;5.93;;
82242;SDS011;71844;51.528;4.442;2024-03-06T04:08:48;10.60;;;5.88;;
82242;SDS011;71844;51.528;4.442;2024-03-06T04:11:15;10.32;;;5.70;;
82242;SDS011;71844;51.528;4.442;2024-03-06T04:13:42;10.25;;;5.55;;
82242;SDS011;71844;51.528;4.442;2024-03-06T04:16:09;10.05;;;5.45;;
82242;SDS011;71844;51.528;4.442;2024-03-06T04:18:36;10.85;;;5.75;;
82242;SDS011;71844;51.528;4.442;2024-03-06T04:21:04;10.60;;;5.65;;
82242;SDS011;71844;51.528;4.442;2024-03-06T04:23:32;11.38;;;6.75;;
82242;SDS011;71844;51.528;4.442;2024-03-06T04:25:59;11.65;;;6.40;;
82242;SDS011;71844;51.528;4.442;2024-03-06T04:28:26;10.13;;;5.88;;
82242;SDS011;71844;51.528;4.442;2024-03-06T04:30:53;10.57;;;7.40;;
82242;SDS011;71844;51.528;4.442;2024-03-06T04:33:21;10.88;;;5.80;;
82242;SDS011;71844;51.528;4.442;2024-03-06T04:35:48;9.55;;;5.53;;
82242;SDS011;71844;51.528;4.442;2024-03-06T04:38:15;9.45;;;5.38;;
82242;SDS011;71844;51.528;4.442;2024-03-06T04:40:42;9.68;;;5.38;;
82242;SDS011;71844;51.528;4.442;2024-03-06T04:43:09;10.68;;;5.82;;
82242;SDS011;71844;51.528;4.442;2024-03-06T04:45:36;10.50;;;5.72;;
82242;SDS011;71844;51.528;4.442;2024-03-06T04:48:03;10.75;;;5.82;;
82242;SDS011;71844;51.528;4.442;2024-03-06T04:50:31;11.23;;;6.35;;
82242;SDS011;71844;51.528;4.442;2024-03-06T04:52:58;10.05;;;5.78;;
82242;SDS011;71844;51.528;4.442;2024-03-06T04:55:24;10.82;;;6.18;;
82242;SDS011;71844;51.528;4.442;2024-03-06T04:57:52;11.52;;;6.32;;
82242;SDS011;71844;51.528;4.442;2024-03-06T05:00:19;11.07;;;6.35;;
82242;SDS011;71844;51.528;4.442;2024-03-06T05:02:47;11.60;;;6.75;;
82242;SDS011;71844;51.528;4.442;2024-03-06T05:05:33;10.88;;;6.50;;
82242;SDS011;71844;51.528;4.442;2024-03-06T05:08:17;10.27;;;5.85;;
82242;SDS011;71844;51.528;4.442;2024-03-06T05:11:01;11.50;;;5.82;;
82242;SDS011;71844;51.528;4.442;2024-03-06T05:13:46;12.05;;;5.97;;
82242;SDS011;71844;51.528;4.442;2024-03-06T05:16:30;12.68;;;6.35;;
82242;SDS011;71844;51.528;4.442;2024-03-06T05:19:14;9.27;;;4.95;;
82242;SDS011;71844;51.528;4.442;2024-03-06T05:21:59;11.27;;;5.60;;
82242;SDS011;71844;51.528;4.442;2024-03-06T05:24:43;10.93;;;5.55;;
82242;SDS011;71844;51.528;4.442;2024-03-06T05:27:28;9.57;;;5.22;;
82242;SDS011;71844;51.528;4.442;2024-03-06T05:30:12;8.57;;;5.13;;
82242;SDS011;71844;51.528;4.442;2024-03-06T05:32:58;9.15;;;5.43;;
82242;SDS011;71844;51.528;4.442;2024-03-06T05:35:42;9.52;;;5.20;;
82242;SDS011;71844;51.528;4.442;2024-03-06T05:38:26;9.77;;;5.70;;
82242;SDS011;71844;51.528;4.442;2024-03-06T05:41:11;9.32;;;5.03;;
82242;SDS011;71844;51.528;4.442;2024-03-06T05:43:55;9.63;;;5.78;;
82242;SDS011;71844;51.528;4.442;2024-03-06T05:46:40;10.95;;;6.20;;
82242;SDS011;71844;51.528;4.442;2024-03-06T05:49:24;9.38;;;5.15;;
82242;SDS011;71844;51.528;4.442;2024-03-06T05:52:09;11.52;;;5.72;;
82242;SDS011;71844;51.528;4.442;2024-03-06T05:54:53;9.88;;;5.53;;
82242;SDS011;71844;51.528;4.442;2024-03-06T05:57:37;11.98;;;5.88;;
82242;SDS011;71844;51.528;4.442;2024-03-06T06:00:22;9.93;;;5.95;;
82242;SDS011;71844;51.528;4.442;2024-03-06T06:02:48;10.88;;;6.60;;
82242;SDS011;71844;51.528;4.442;2024-03-06T06:05:15;11.43;;;6.00;;
82242;SDS011;71844;51.528;4.442;2024-03-06T06:07:52;10.68;;;6.13;;
82242;SDS011;71844;51.528;4.442;2024-03-06T06:10:19;9.32;;;5.57;;
82242;SDS011;71844;51.528;4.442;2024-03-06T06:12:48;13.80;;;6.15;;
82242;SDS011;71844;51.528;4.442;2024-03-06T06:15:15;10.35;;;5.63;;
82242;SDS011;71844;51.528;4.442;2024-03-06T06:17:43;11.70;;;6.30;;
82242;SDS011;71844;51.528;4.442;2024-03-06T06:20:11;12.48;;;5.80;;
82242;SDS011;71844;51.528;4.442;2024-03-06T06:22:43;10.70;;;6.00;;
82242;SDS011;71844;51.528;4.442;2024-03-06T06:25:10;11.10;;;6.00;;
82242;SDS011;71844;51.528;4.442;2024-03-06T06:27:38;11.40;;;5.93;;
82242;SDS011;71844;51.528;4.442;2024-03-06T06:30:05;10.93;;;6.07;;
82242;SDS011;71844;51.528;4.442;2024-03-06T06:32:38;12.30;;;6.22;;
82242;SDS011;71844;51.528;4.442;2024-03-06T06:35:08;11.98;;;6.57;;
82242;SDS011;71844;51.528;4.442;2024-03-06T06:37:35;10.82;;;6.15;;
82242;SDS011;71844;51.528;4.442;2024-03-06T06:40:06;12.73;;;6.18;;
82242;SDS011;71844;51.528;4.442;2024-03-06T06:42:34;11.43;;;6.07;;
82242;SDS011;71844;51.528;4.442;2024-03-06T06:45:02;10.68;;;6.03;;
82242;SDS011;71844;51.528;4.442;2024-03-06T06:47:29;11.23;;;5.57;;
82242;SDS011;71844;51.528;4.442;2024-03-06T06:49:57;12.43;;;6.30;;
82242;SDS011;71844;51.528;4.442;2024-03-06T06:52:23;11.32;;;6.72;;
82242;SDS011;71844;51.528;4.442;2024-03-06T06:54:54;11.80;;;6.55;;
82242;SDS011;71844;51.528;4.442;2024-03-06T06:57:22;11.32;;;6.38;;
82242;SDS011;71844;51.528;4.442;2024-03-06T06:59:48;11.25;;;6.38;;
82242;SDS011;71844;51.528;4.442;2024-03-06T07:02:16;12.45;;;7.50;;
82242;SDS011;71844;51.528;4.442;2024-03-06T07:04:43;11.25;;;6.40;;
82242;SDS011;71844;51.528;4.442;2024-03-06T07:07:10;12.50;;;6.80;;
82242;SDS011;71844;51.528;4.442;2024-03-06T07:09:37;12.18;;;6.80;;
82242;SDS011;71844;51.528;4.442;2024-03-06T07:12:04;9.77;;;6.00;;
82242;SDS011;71844;51.528;4.442;2024-03-06T07:14:31;12.88;;;6.72;;
82242;SDS011;71844;51.528;4.442;2024-03-06T07:16:58;10.55;;;6.40;;
82242;SDS011;71844;51.528;4.442;2024-03-06T07:19:25;12.13;;;7.45;;
82242;SDS011;71844;51.528;4.442;2024-03-06T07:21:52;12.60;;;6.47;;
82242;SDS011;71844;51.528;4.442;2024-03-06T07:24:19;13.82;;;6.60;;
82242;SDS011;71844;51.528;4.442;2024-03-06T07:26:46;11.63;;;6.47;;
82242;SDS011;71844;51.528;4.442;2024-03-06T07:29:13;13.70;;;8.63;;
82242;SDS011;71844;51.528;4.442;2024-03-06T07:31:41;14.95;;;8.75;;
82242;SDS011;71844;51.528;4.442;2024-03-06T07:34:08;13.40;;;8.05;;
82242;SDS011;71844;51.528;4.442;2024-03-06T07:36:36;13.55;;;7.38;;
82242;SDS011;71844;51.528;4.442;2024-03-06T07:39:03;12.95;;;7.63;;
82242;SDS011;71844;51.528;4.442;2024-03-06T07:41:30;15.45;;;7.97;;
82242;SDS011;71844;51.528;4.442;2024-03-06T07:44:00;13.50;;;7.82;;
82242;SDS011;71844;51.528;4.442;2024-03-06T07:46:27;13.80;;;7.88;;
82242;SDS011;71844;51.528;4.442;2024-03-06T07:48:54;14.70;;;7.93;;
82242;SDS011;71844;51.528;4.442;2024-03-06T07:51:22;15.07;;;10.07;;
82242;SDS011;71844;51.528;4.442;2024-03-06T07:53:49;17.35;;;8.05;;
82242;SDS011;71844;51.528;4.442;2024-03-06T07:56:17;14.00;;;7.50;;
82242;SDS011;71844;51.528;4.442;2024-03-06T07:58:44;14.45;;;7.55;;
82242;SDS011;71844;51.528;4.442;2024-03-06T08:01:11;14.45;;;7.85;;
82242;SDS011;71844;51.528;4.442;2024-03-06T08:03:39;14.15;;;8.13;;
82242;SDS011;71844;51.528;4.442;2024-03-06T08:06:07;12.85;;;7.47;;
82242;SDS011;71844;51.528;4.442;2024-03-06T08:08:34;15.60;;;8.57;;
82242;SDS011;71844;51.528;4.442;2024-03-06T08:11:02;14.13;;;7.82;;
82242;SDS011;71844;51.528;4.442;2024-03-06T08:13:29;13.27;;;7.43;;
82242;SDS011;71844;51.528;4.442;2024-03-06T08:15:56;13.00;;;7.95;;
82242;SDS011;71844;51.528;4.442;2024-03-06T08:18:23;14.68;;;8.18;;
82242;SDS011;71844;51.528;4.442;2024-03-06T10:02:02;10.95;;;6.20;;
82242;SDS011;71844;51.528;4.442;2024-03-06T10:07:10;8.43;;;5.03;;
82242;SDS011;71844;51.528;4.442;2024-03-06T10:09:37;7.47;;;5.15;;
82242;SDS011;71844;51.528;4.442;2024-03-06T10:12:06;9.63;;;5.80;;
82242;SDS011;71844;51.528;4.442;2024-03-06T10:14:33;10.85;;;5.90;;
82242;SDS011;71844;51.528;4.442;2024-03-06T10:17:00;11.25;;;5.82;;
82242;SDS011;71844;51.528;4.442;2024-03-06T10:19:28;13.70;;;5.32;;
82242;SDS011;71844;51.528;4.442;2024-03-06T10:21:56;9.02;;;5.22;;
82242;SDS011;71844;51.528;4.442;2024-03-06T10:24:25;10.07;;;5.95;;
82242;SDS011;71844;51.528;4.442;2024-03-06T10:26:57;9.52;;;5.93;;
82242;SDS011;71844;51.528;4.442;2024-03-06T10:29:26;10.75;;;6.18;;
82242;SDS011;71844;51.528;4.442;2024-03-06T10:31:55;9.52;;;5.95;;
82242;SDS011;71844;51.528;4.442;2024-03-06T10:34:26;9.70;;;6.03;;
82242;SDS011;71844;51.528;4.442;2024-03-06T10:36:57;9.25;;;6.45;;
82242;SDS011;71844;51.528;4.442;2024-03-06T10:39:30;10.52;;;6.50;;
82242;SDS011;71844;51.528;4.442;2024-03-06T10:42:01;9.70;;;6.05;;
82242;SDS011;71844;51.528;4.442;2024-03-06T10:44:29;12.27;;;6.75;;
82242;SDS011;71844;51.528;4.442;2024-03-06T10:46:58;11.32;;;6.38;;
82242;SDS011;71844;51.528;4.442;2024-03-06T10:49:29;8.45;;;5.72;;
82242;SDS011;71844;51.528;4.442;2024-03-06T10:52:00;10.38;;;5.60;;
82242;SDS011;71844;51.528;4.442;2024-03-06T10:54:37;11.13;;;5.93;;
82242;SDS011;71844;51.528;4.442;2024-03-06T10:57:08;9.85;;;5.45;;
82242;SDS011;71844;51.528;4.442;2024-03-06T10:59:36;10.25;;;5.32;;
82242;SDS011;71844;51.528;4.442;2024-03-06T11:02:03;8.05;;;5.00;;
82242;SDS011;71844;51.528;4.442;2024-03-06T11:04:31;9.48;;;5.55;;
82242;SDS011;71844;51.528;4.442;2024-03-06T11:07:01;8.23;;;5.03;;
82242;SDS011;71844;51.528;4.442;2024-03-06T11:09:33;6.78;;;4.60;;
82242;SDS011;71844;51.528;4.442;2024-03-06T11:12:31;7.78;;;5.38;;
82242;SDS011;71844;51.528;4.442;2024-03-06T11:15:09;8.35;;;5.22;;
82242;SDS011;71844;51.528;4.442;2024-03-06T11:17:43;8.07;;;4.72;;
82242;SDS011;71844;51.528;4.442;2024-03-06T11:20:17;6.65;;;3.20;;
82242;SDS011;71844;51.528;4.442;2024-03-06T11:28:18;7.63;;;3.78;;
82242;SDS011;71844;51.528;4.442;2024-03-06T11:31:04;7.80;;;4.28;;
82242;SDS011;71844;51.528;4.442;2024-03-06T11:33:39;6.65;;;3.97;;
82242;SDS011;71844;51.528;4.442;2024-03-06T11:38:48;7.13;;;4.47;;
82242;SDS011;71844;51.528;4.442;2024-03-06T11:41:25;6.82;;;4.32;;
82242;SDS011;71844;51.528;4.442;2024-03-06T11:43:53;6.43;;;4.63;;
82242;SDS011;71844;51.528;4.442;2024-03-06T11:46:22;6.65;;;4.30;;
82242;SDS011;71844;51.528;4.442;2024-03-06T11:49:05;8.55;;;4.05;;
82242;SDS011;71844;51.528;4.442;2024-03-06T11:52:12;6.00;;;3.92;;
82242;SDS011;71844;51.528;4.442;2024-03-06T11:54:38;6.45;;;4.18;;
82242;SDS011;71844;51.528;4.442;2024-03-06T11:57:05;10.05;;;4.78;;
82242;SDS011;71844;51.528;4.442;2024-03-06T11:59:34;4.95;;;3.65;;
82242;SDS011;71844;51.528;4.442;2024-03-06T12:02:05;6.18;;;3.75;;
82242;SDS011;71844;51.528;4.442;2024-03-06T12:04:33;5.95;;;4.05;;
82242;SDS011;71844;51.528;4.442;2024-03-06T12:07:02;7.00;;;4.10;;
82242;SDS011;71844;51.528;4.442;2024-03-06T12:09:35;7.28;;;4.22;;
82242;SDS011;71844;51.528;4.442;2024-03-06T12:12:09;6.35;;;4.32;;
82242;SDS011;71844;51.528;4.442;2024-03-06T12:14:37;7.28;;;4.18;;
82242;SDS011;71844;51.528;4.442;2024-03-06T12:17:11;5.65;;;3.83;;
82242;SDS011;71844;51.528;4.442;2024-03-06T12:19:40;5.22;;;3.97;;
82242;SDS011;71844;51.528;4.442;2024-03-06T12:22:10;6.85;;;4.20;;
82242;SDS011;71844;51.528;4.442;2024-03-06T12:24:38;6.18;;;4.03;;
82242;SDS011;71844;51.528;4.442;2024-03-06T12:27:05;4.75;;;3.17;;
82242;SDS011;71844;51.528;4.442;2024-03-06T12:29:34;6.55;;;3.70;;
82242;SDS011;71844;51.528;4.442;2024-03-06T12:32:02;4.63;;;3.30;;
82242;SDS011;71844;51.528;4.442;2024-03-06T12:34:30;4.55;;;2.80;;
82242;SDS011;71844;51.528;4.442;2024-03-06T12:37:10;6.57;;;3.53;;
82242;SDS011;71844;51.528;4.442;2024-03-06T12:39:38;6.40;;;3.13;;
82242;SDS011;71844;51.528;4.442;2024-03-06T12:42:09;4.97;;;2.70;;
82242;SDS011;71844;51.528;4.442;2024-03-06T12:44:36;3.55;;;2.25;;
82242;SDS011;71844;51.528;4.442;2024-03-06T12:47:03;3.42;;;1.92;;
82242;SDS011;71844;51.528;4.442;2024-03-06T12:49:30;3.50;;;2.13;;
82242;SDS011;71844;51.528;4.442;2024-03-06T12:51:58;3.95;;;2.38;;
82242;SDS011;71844;51.528;4.442;2024-03-06T12:54:28;4.55;;;1.75;;
82242;SDS011;71844;51.528;4.442;2024-03-06T12:56:55;6.03;;;1.67;;
82242;SDS011;71844;51.528;4.442;2024-03-06T12:59:23;3.03;;;1.98;;
82242;SDS011;71844;51.528;4.442;2024-03-06T13:01:50;4.22;;;2.65;;
82242;SDS011;71844;51.528;4.442;2024-03-06T13:04:17;5.13;;;2.17;;
82242;SDS011;71844;51.528;4.442;2024-03-06T13:06:44;4.45;;;2.45;;
82242;SDS011;71844;51.528;4.442;2024-03-06T13:09:12;2.85;;;1.95;;
82242;SDS011;71844;51.528;4.442;2024-03-06T13:11:39;4.68;;;1.92;;
82242;SDS011;71844;51.528;4.442;2024-03-06T13:16:39;3.65;;;1.80;;
82242;SDS011;71844;51.528;4.442;2024-03-06T13:19:06;5.13;;;2.15;;
82242;SDS011;71844;51.528;4.442;2024-03-06T13:21:34;4.88;;;2.08;;
82242;SDS011;71844;51.528;4.442;2024-03-06T13:24:01;3.03;;;1.52;;
82242;SDS011;71844;51.528;4.442;2024-03-06T13:26:29;3.00;;;1.95;;
82242;SDS011;71844;51.528;4.442;2024-03-06T13:28:56;3.88;;;1.90;;
82242;SDS011;71844;51.528;4.442;2024-03-06T13:31:23;3.58;;;1.90;;
82242;SDS011;71844;51.528;4.442;2024-03-06T13:33:50;2.83;;;1.80;;
82242;SDS011;71844;51.528;4.442;2024-03-06T13:36:16;3.92;;;2.13;;
82242;SDS011;71844;51.528;4.442;2024-03-06T13:38:43;4.95;;;2.25;;
82242;SDS011;71844;51.528;4.442;2024-03-06T13:41:11;4.07;;;2.03;;
82242;SDS011;71844;51.528;4.442;2024-03-06T13:43:38;3.85;;;2.20;;
82242;SDS011;71844;51.528;4.442;2024-03-06T13:46:04;4.30;;;1.95;;
82242;SDS011;71844;51.528;4.442;2024-03-06T13:48:31;3.92;;;2.03;;
82242;SDS011;71844;51.528;4.442;2024-03-06T13:50:58;3.25;;;1.70;;
82242;SDS011;71844;51.528;4.442;2024-03-06T13:53:25;5.10;;;1.92;;
82242;SDS011;71844;51.528;4.442;2024-03-06T13:55:52;2.97;;;1.67;;
82242;SDS011;71844;51.528;4.442;2024-03-06T13:58:19;3.67;;;1.77;;
82242;SDS011;71844;51.528;4.442;2024-03-06T14:00:46;3.38;;;1.83;;
82242;SDS011;71844;51.528;4.442;2024-03-06T14:03:13;4.00;;;1.75;;
82242;SDS011;71844;51.528;4.442;2024-03-06T14:05:40;3.97;;;2.13;;
82242;SDS011;71844;51.528;4.442;2024-03-06T14:08:07;4.03;;;2.03;;
82242;SDS011;71844;51.528;4.442;2024-03-06T14:10:39;4.03;;;2.13;;
82242;SDS011;71844;51.528;4.442;2024-03-06T14:13:06;4.15;;;2.53;;
82242;SDS011;71844;51.528;4.442;2024-03-06T14:15:34;5.07;;;2.67;;
82242;SDS011;71844;51.528;4.442;2024-03-06T14:18:04;4.93;;;2.70;;
82242;SDS011;71844;51.528;4.442;2024-03-06T14:20:32;5.70;;;2.97;;
82242;SDS011;71844;51.528;4.442;2024-03-06T14:22:59;6.10;;;2.72;;
82242;SDS011;71844;51.528;4.442;2024-03-06T14:25:26;5.50;;;2.47;;
82242;SDS011;71844;51.528;4.442;2024-03-06T14:27:53;5.15;;;3.05;;
82242;SDS011;71844;51.528;4.442;2024-03-06T14:30:20;4.82;;;2.92;;
82242;SDS011;71844;51.528;4.442;2024-03-06T14:32:50;4.40;;;2.63;;
82242;SDS011;71844;51.528;4.442;2024-03-06T14:35:17;5.93;;;2.88;;
82242;SDS011;71844;51.528;4.442;2024-03-06T14:37:44;4.07;;;2.33;;
82242;SDS011;71844;51.528;4.442;2024-03-06T14:40:11;5.15;;;2.55;;
82242;SDS011;71844;51.528;4.442;2024-03-06T14:42:39;4.53;;;2.90;;
82242;SDS011;71844;51.528;4.442;2024-03-06T14:45:06;4.13;;;1.95;;
82242;SDS011;71844;51.528;4.442;2024-03-06T14:47:33;5.47;;;2.88;;
82242;SDS011;71844;51.528;4.442;2024-03-06T14:50:00;4.68;;;3.05;;
82242;SDS011;71844;51.528;4.442;2024-03-06T14:52:27;5.30;;;2.95;;
82242;SDS011;71844;51.528;4.442;2024-03-06T14:54:54;4.63;;;3.10;;
82242;SDS011;71844;51.528;4.442;2024-03-06T14:57:21;5.18;;;3.53;;
82242;SDS011;71844;51.528;4.442;2024-03-06T14:59:50;6.18;;;3.17;;
82242;SDS011;71844;51.528;4.442;2024-03-06T15:02:18;6.95;;;3.35;;
82242;SDS011;71844;51.528;4.442;2024-03-06T15:04:44;5.75;;;3.10;;
82242;SDS011;71844;51.528;4.442;2024-03-06T15:07:12;7.30;;;3.67;;
82242;SDS011;71844;51.528;4.442;2024-03-06T15:09:39;7.45;;;3.67;;
82242;SDS011;71844;51.528;4.442;2024-03-06T15:12:06;5.90;;;3.58;;
82242;SDS011;71844;51.528;4.442;2024-03-06T15:14:33;8.23;;;4.22;;
82242;SDS011;71844;51.528;4.442;2024-03-06T15:17:11;6.95;;;4.15;;
82242;SDS011;71844;51.528;4.442;2024-03-06T15:19:38;6.88;;;4.25;;
82242;SDS011;71844;51.528;4.442;2024-03-06T15:22:06;6.32;;;3.88;;
82242;SDS011;71844;51.528;4.442;2024-03-06T15:24:34;6.28;;;3.28;;
82242;SDS011;71844;51.528;4.442;2024-03-06T15:27:01;6.85;;;3.25;;
82242;SDS011;71844;51.528;4.442;2024-03-06T15:29:28;5.63;;;3.45;;
82242;SDS011;71844;51.528;4.442;2024-03-06T15:31:55;6.03;;;3.70;;
82242;SDS011;71844;51.528;4.442;2024-03-06T15:34:22;6.53;;;3.80;;
82242;SDS011;71844;51.528;4.442;2024-03-06T15:36:49;7.28;;;4.28;;
82242;SDS011;71844;51.528;4.442;2024-03-06T15:39:20;6.18;;;3.80;;
82242;SDS011;71844;51.528;4.442;2024-03-06T15:41:48;7.20;;;4.57;;
82242;SDS011;71844;51.528;4.442;2024-03-06T15:44:15;7.85;;;3.95;;
82242;SDS011;71844;51.528;4.442;2024-03-06T15:46:42;8.27;;;4.22;;
82242;SDS011;71844;51.528;4.442;2024-03-06T15:49:21;6.32;;;3.92;;
82242;SDS011;71844;51.528;4.442;2024-03-06T15:51:52;7.28;;;4.15;;
82242;SDS011;71844;51.528;4.442;2024-03-06T15:54:20;6.75;;;4.20;;
82242;SDS011;71844;51.528;4.442;2024-03-06T15:56:48;8.07;;;4.22;;
82242;SDS011;71844;51.528;4.442;2024-03-06T15:59:15;6.97;;;4.35;;
82242;SDS011;71844;51.528;4.442;2024-03-06T16:01:42;7.70;;;5.45;;
82242;SDS011;71844;51.528;4.442;2024-03-06T16:04:10;7.32;;;5.13;;
82242;SDS011;71844;51.528;4.442;2024-03-06T16:06:37;9.02;;;5.43;;
82242;SDS011;71844;51.528;4.442;2024-03-06T16:11:40;7.97;;;4.78;;
82242;SDS011;71844;51.528;4.442;2024-03-06T16:14:08;7.63;;;4.43;;
82242;SDS011;71844;51.528;4.442;2024-03-06T16:16:39;8.63;;;5.35;;
82242;SDS011;71844;51.528;4.442;2024-03-06T16:19:07;8.82;;;4.97;;
82242;SDS011;71844;51.528;4.442;2024-03-06T16:21:34;10.52;;;5.95;;
82242;SDS011;71844;51.528;4.442;2024-03-06T16:24:01;7.90;;;4.88;;
82242;SDS011;71844;51.528;4.442;2024-03-06T16:26:34;9.45;;;5.20;;
82242;SDS011;71844;51.528;4.442;2024-03-06T16:29:05;8.80;;;5.53;;
82242;SDS011;71844;51.528;4.442;2024-03-06T16:31:32;8.90;;;5.28;;
82242;SDS011;71844;51.528;4.442;2024-03-06T16:33:59;11.23;;;5.88;;
82242;SDS011;71844;51.528;4.442;2024-03-06T16:36:26;8.13;;;5.18;;
82242;SDS011;71844;51.528;4.442;2024-03-06T16:38:54;9.00;;;4.97;;
82242;SDS011;71844;51.528;4.442;2024-03-06T16:41:20;8.75;;;4.97;;
82242;SDS011;71844;51.528;4.442;2024-03-06T16:43:47;9.57;;;4.95;;
82242;SDS011;71844;51.528;4.442;2024-03-06T16:46:16;11.13;;;5.15;;
82242;SDS011;71844;51.528;4.442;2024-03-06T16:48:43;10.70;;;5.53;;
82242;SDS011;71844;51.528;4.442;2024-03-06T16:51:14;8.80;;;5.43;;
82242;SDS011;71844;51.528;4.442;2024-03-06T16:53:44;9.70;;;4.90;;
82242;SDS011;71844;51.528;4.442;2024-03-06T16:56:11;11.20;;;5.35;;